createdAt,value
2017-08-12T00:00:52.133Z,0
2017-08-12T00:01:52.105Z,0
2017-08-12T00:02:52.119Z,0
2017-08-12T00:03:52.117Z,0
2017-08-12T00:04:52.083Z,0
2017-08-12T00:05:52.064Z,0
2017-08-12T00:06:52.058Z,0
2017-08-12T00:07:52.026Z,0
2017-08-12T00:08:52.023Z,0
2017-08-12T00:09:51.985Z,0
2017-08-12T00:10:51.677Z,0
2017-08-12T00:11:51.972Z,0
2017-08-12T00:12:51.946Z,0
2017-08-12T00:13:51.940Z,0
2017-08-12T00:14:51.928Z,0
2017-08-12T00:15:51.919Z,0
2017-08-12T00:16:51.892Z,0
2017-08-12T00:17:51.875Z,0
2017-08-12T00:18:51.879Z,0
2017-08-12T00:19:51.860Z,0
2017-08-12T00:20:51.825Z,0
2017-08-12T00:21:51.806Z,0
2017-08-12T00:22:51.816Z,0
2017-08-12T00:23:51.801Z,0
2017-08-12T00:24:51.775Z,0
2017-08-12T00:25:51.775Z,0
2017-08-12T00:26:51.445Z,0
2017-08-12T00:27:51.734Z,0
2017-08-12T00:28:51.728Z,0
2017-08-12T00:29:51.697Z,0
2017-08-12T00:30:51.417Z,0
2017-08-12T00:31:51.367Z,0
2017-08-12T00:32:51.667Z,0
2017-08-12T00:33:51.639Z,0
2017-08-12T00:34:51.629Z,0
2017-08-12T00:35:51.616Z,0
2017-08-12T00:36:51.609Z,0
2017-08-12T00:37:51.290Z,0
2017-08-12T00:38:51.573Z,0
2017-08-12T00:39:51.551Z,0
2017-08-12T00:40:51.530Z,0
2017-08-12T00:41:51.220Z,0
2017-08-12T00:42:51.197Z,0
2017-08-12T00:43:51.186Z,0
2017-08-12T00:44:51.483Z,0
2017-08-12T00:45:51.452Z,0
2017-08-12T00:46:51.487Z,0
2017-08-12T00:47:51.420Z,0
2017-08-12T00:48:51.434Z,0
2017-08-12T00:49:51.106Z,0
2017-08-12T00:50:51.390Z,0
2017-08-12T00:51:51.385Z,0
2017-08-12T00:52:51.363Z,0
2017-08-12T00:53:51.352Z,0
2017-08-12T00:54:51.351Z,0
2017-08-12T00:55:51.315Z,0
2017-08-12T00:56:51.300Z,0
2017-08-12T00:57:51.306Z,0
2017-08-12T00:58:51.293Z,0
2017-08-12T00:59:51.269Z,0
2017-08-12T01:00:51.237Z,0
2017-08-12T01:01:51.230Z,0
2017-08-12T01:02:51.226Z,0
2017-08-12T01:03:51.202Z,0
2017-08-12T01:04:50.572Z,0
2017-08-12T01:05:51.181Z,0
2017-08-12T01:06:51.153Z,0
2017-08-12T01:07:50.538Z,0
2017-08-12T01:08:50.518Z,0
2017-08-12T01:09:50.809Z,0
2017-08-12T01:10:50.813Z,0
2017-08-12T01:11:50.791Z,0
2017-08-12T01:12:50.455Z,0
2017-08-12T01:13:51.049Z,0
2017-08-12T01:14:51.029Z,0
2017-08-12T01:15:50.716Z,0
2017-08-12T01:16:50.702Z,0
2017-08-12T01:17:51.007Z,0
2017-08-12T01:18:50.989Z,0
2017-08-12T01:19:50.670Z,0
2017-08-12T01:20:50.645Z,0
2017-08-12T01:21:50.939Z,0
2017-08-12T01:22:50.618Z,0
2017-08-12T01:23:50.598Z,0
2017-08-12T01:24:50.595Z,0
2017-08-12T01:25:50.880Z,0
2017-08-12T01:26:50.570Z,0
2017-08-12T01:27:50.561Z,0
2017-08-12T01:28:50.529Z,0
2017-08-12T01:29:50.510Z,0
2017-08-12T01:30:50.510Z,0
2017-08-12T01:31:50.204Z,0
2017-08-12T01:32:50.481Z,0
2017-08-12T01:33:50.778Z,0
2017-08-12T01:34:50.767Z,0
2017-08-12T01:35:50.435Z,0
2017-08-12T01:36:50.724Z,0
2017-08-12T01:37:50.413Z,0
2017-08-12T01:38:50.694Z,0
2017-08-12T01:39:50.693Z,0
2017-08-12T01:40:50.667Z,0
2017-08-12T01:41:50.664Z,0
2017-08-12T01:42:50.643Z,0
2017-08-12T01:43:50.633Z,0
2017-08-12T01:44:50.605Z,0
2017-08-12T01:45:50.596Z,0
2017-08-12T01:46:50.579Z,0
2017-08-12T01:47:50.555Z,0
2017-08-12T01:48:50.550Z,0
2017-08-12T01:49:50.539Z,0
2017-08-12T01:50:50.253Z,0
2017-08-12T01:51:50.509Z,0
2017-08-12T01:52:50.482Z,0
2017-08-12T01:53:50.171Z,0
2017-08-12T01:54:50.458Z,0
2017-08-12T01:55:50.139Z,0
2017-08-12T01:56:50.127Z,0
2017-08-12T01:57:50.408Z,0
2017-08-12T01:58:50.412Z,0
2017-08-12T01:59:50.407Z,0
2017-08-12T02:00:50.379Z,0
2017-08-12T02:01:50.349Z,0
2017-08-12T02:02:50.352Z,0
2017-08-12T02:03:50.332Z,0
2017-08-12T02:04:50.322Z,0
2017-08-12T02:05:50.010Z,0
2017-08-12T02:06:50.277Z,0
2017-08-12T02:07:50.279Z,0
2017-08-12T02:08:50.263Z,0
2017-08-12T02:09:50.243Z,0
2017-08-12T02:10:50.236Z,0
2017-08-12T02:11:49.611Z,0
2017-08-12T02:12:50.213Z,0
2017-08-12T02:13:50.186Z,0
2017-08-12T02:14:50.176Z,0
2017-08-12T02:15:49.877Z,0
2017-08-12T02:16:50.152Z,0
2017-08-12T02:17:49.812Z,0
2017-08-12T02:18:49.799Z,0
2017-08-12T02:19:50.092Z,0
2017-08-12T02:20:50.083Z,0
2017-08-12T02:21:50.057Z,0
2017-08-12T02:22:50.054Z,0
2017-08-12T02:23:50.026Z,0
2017-08-12T02:24:50.027Z,0
2017-08-12T02:25:49.696Z,0
2017-08-12T02:26:50.007Z,0
2017-08-12T02:27:49.979Z,0
2017-08-12T02:28:49.970Z,0
2017-08-12T02:29:49.951Z,0
2017-08-12T02:30:49.943Z,0
2017-08-12T02:31:49.917Z,0
2017-08-12T02:32:49.905Z,0
2017-08-12T02:33:49.886Z,0
2017-08-12T02:34:49.888Z,0
2017-08-12T02:35:49.547Z,0
2017-08-12T02:36:49.861Z,0
2017-08-12T02:37:49.833Z,0
2017-08-12T02:38:49.825Z,0
2017-08-12T02:39:49.811Z,0
2017-08-12T02:40:49.808Z,0
2017-08-12T02:41:49.770Z,0
2017-08-12T02:42:49.765Z,0
2017-08-12T02:43:49.743Z,0
2017-08-12T02:44:49.425Z,0
2017-08-12T02:45:49.720Z,0
2017-08-12T02:46:49.696Z,0
2017-08-12T02:47:49.700Z,0
2017-08-12T02:48:49.689Z,0
2017-08-12T02:49:49.665Z,0
2017-08-12T02:50:49.650Z,0
2017-08-12T02:51:49.625Z,0
2017-08-12T02:52:49.310Z,0
2017-08-12T02:53:49.289Z,0
2017-08-12T02:54:49.288Z,0
2017-08-12T02:55:49.275Z,0
2017-08-12T02:56:49.565Z,0
2017-08-12T02:57:49.553Z,0
2017-08-12T02:58:49.520Z,0
2017-08-12T02:59:49.512Z,0
2017-08-12T03:00:49.496Z,0
2017-08-12T03:01:49.486Z,0
2017-08-12T03:02:49.458Z,0
2017-08-12T03:03:49.446Z,0
2017-08-12T03:04:49.438Z,0
2017-08-12T03:05:49.429Z,0
2017-08-12T03:06:49.405Z,0
2017-08-12T03:07:49.382Z,0
2017-08-12T03:08:49.367Z,0
2017-08-12T03:09:49.063Z,0
2017-08-12T03:10:49.371Z,0
2017-08-12T03:11:49.330Z,0
2017-08-12T03:12:49.019Z,0
2017-08-12T03:13:49.307Z,0
2017-08-12T03:14:48.982Z,0
2017-08-12T03:15:49.269Z,0
2017-08-12T03:16:49.259Z,0
2017-08-12T03:17:49.240Z,0
2017-08-12T03:18:49.265Z,0
2017-08-12T03:19:49.207Z,0
2017-08-12T03:20:49.193Z,0
2017-08-12T03:21:49.185Z,0
2017-08-12T03:22:49.163Z,0
2017-08-12T03:23:49.151Z,0
2017-08-12T03:24:49.143Z,0
2017-08-12T03:25:49.134Z,0
2017-08-12T03:26:49.116Z,0
2017-08-12T03:27:49.099Z,0
2017-08-12T03:28:49.082Z,0
2017-08-12T03:29:49.069Z,0
2017-08-12T03:30:49.079Z,0
2017-08-12T03:31:48.122Z,0
2017-08-12T03:32:49.020Z,0
2017-08-12T03:33:48.406Z,0
2017-08-12T03:34:48.694Z,0
2017-08-12T03:35:48.981Z,0
2017-08-12T03:36:48.667Z,0
2017-08-12T03:37:48.955Z,0
2017-08-12T03:38:48.951Z,0
2017-08-12T03:39:48.919Z,0
2017-08-12T03:40:48.909Z,0
2017-08-12T03:41:48.899Z,0
2017-08-12T03:42:48.264Z,0
2017-08-12T03:43:48.857Z,0
2017-08-12T03:44:48.862Z,0
2017-08-12T03:45:48.848Z,4
2017-08-12T03:46:48.521Z,4
2017-08-12T03:47:48.208Z,0
2017-08-12T03:48:48.800Z,4
2017-08-12T03:49:48.782Z,4
2017-08-12T03:50:48.454Z,8
2017-08-12T03:51:48.455Z,4
2017-08-12T03:52:48.438Z,8
2017-08-12T03:53:48.721Z,8
2017-08-12T03:54:48.404Z,12
2017-08-12T03:55:48.392Z,8
2017-08-12T03:56:48.385Z,8
2017-08-12T03:57:48.657Z,16
2017-08-12T03:58:48.359Z,16
2017-08-12T03:59:48.342Z,20
2017-08-12T04:00:48.316Z,20
2017-08-12T04:01:48.609Z,24
2017-08-12T04:02:48.300Z,28
2017-08-12T04:03:48.272Z,28
2017-08-12T04:04:48.260Z,28
2017-08-12T04:05:48.562Z,32
2017-08-12T04:06:48.236Z,32
2017-08-12T04:07:48.233Z,40
2017-08-12T04:08:48.216Z,44
2017-08-12T04:09:48.194Z,48
2017-08-12T04:10:48.195Z,52
2017-08-12T04:11:48.166Z,52
2017-08-12T04:12:48.466Z,56
2017-08-12T04:13:48.435Z,60
2017-08-12T04:14:48.119Z,60
2017-08-12T04:15:48.420Z,64
2017-08-12T04:16:48.413Z,68
2017-08-12T04:17:48.398Z,80
2017-08-12T04:18:48.366Z,88
2017-08-12T04:19:48.370Z,100
2017-08-12T04:20:48.338Z,104
2017-08-12T04:21:48.045Z,104
2017-08-12T04:22:48.309Z,116
2017-08-12T04:23:48.306Z,124
2017-08-12T04:24:48.281Z,132
2017-08-12T04:25:48.259Z,144
2017-08-12T04:26:47.963Z,156
2017-08-12T04:27:48.235Z,184
2017-08-12T04:28:48.231Z,224
2017-08-12T04:29:48.218Z,260
2017-08-12T04:30:47.902Z,296
2017-08-12T04:31:47.570Z,328
2017-08-12T04:32:48.169Z,340
2017-08-12T04:33:48.158Z,348
2017-08-12T04:34:48.147Z,364
2017-08-12T04:35:47.847Z,380
2017-08-12T04:36:47.502Z,384
2017-08-12T04:37:47.798Z,396
2017-08-12T04:38:48.098Z,412
2017-08-12T04:39:48.067Z,432
2017-08-12T04:40:48.054Z,456
2017-08-12T04:41:48.054Z,472
2017-08-12T04:42:47.726Z,496
2017-08-12T04:43:48.011Z,520
2017-08-12T04:44:47.704Z,568
2017-08-12T04:45:47.694Z,596
2017-08-12T04:46:47.976Z,612
2017-08-12T04:47:47.957Z,636
2017-08-12T04:48:47.955Z,688
2017-08-12T04:49:47.931Z,728
2017-08-12T04:50:47.917Z,748
2017-08-12T04:51:47.901Z,780
2017-08-12T04:52:47.891Z,796
2017-08-12T04:53:47.877Z,804
2017-08-12T04:54:47.861Z,796
2017-08-12T04:55:47.845Z,788
2017-08-12T04:56:47.827Z,768
2017-08-12T04:57:47.807Z,744
2017-08-12T04:58:47.810Z,728
2017-08-12T04:59:47.785Z,748
2017-08-12T05:00:47.783Z,760
2017-08-12T05:01:47.766Z,772
2017-08-12T05:02:47.738Z,768
2017-08-12T05:03:47.738Z,792
2017-08-12T05:04:47.704Z,832
2017-08-12T05:05:47.703Z,864
2017-08-12T05:06:47.681Z,892
2017-08-12T05:07:47.675Z,892
2017-08-12T05:08:47.647Z,908
2017-08-12T05:09:47.338Z,924
2017-08-12T05:10:47.322Z,916
2017-08-12T05:11:47.316Z,916
2017-08-12T05:12:47.283Z,916
2017-08-12T05:13:47.574Z,964
2017-08-12T05:14:47.583Z,1012
2017-08-12T05:15:47.548Z,1036
2017-08-12T05:16:47.538Z,1060
2017-08-12T05:17:47.223Z,1072
2017-08-12T05:18:47.504Z,1072
2017-08-12T05:19:47.483Z,1060
2017-08-12T05:20:47.472Z,1044
2017-08-12T05:21:47.463Z,1028
2017-08-12T05:22:47.442Z,1004
2017-08-12T05:23:47.427Z,996
2017-08-12T05:24:47.419Z,992
2017-08-12T05:25:47.410Z,1000
2017-08-12T05:26:47.398Z,968
2017-08-12T05:27:47.076Z,968
2017-08-12T05:28:47.358Z,960
2017-08-12T05:29:47.347Z,988
2017-08-12T05:30:47.032Z,1004
2017-08-12T05:31:47.318Z,988
2017-08-12T05:32:47.307Z,1012
2017-08-12T05:33:47.283Z,1052
2017-08-12T05:34:46.974Z,1104
2017-08-12T05:35:47.261Z,1120
2017-08-12T05:36:47.249Z,1176
2017-08-12T05:37:47.221Z,1236
2017-08-12T05:38:47.205Z,1308
2017-08-12T05:39:47.182Z,1324
2017-08-12T05:40:47.177Z,1348
2017-08-12T05:41:47.159Z,1380
2017-08-12T05:42:47.165Z,1412
2017-08-12T05:43:46.830Z,1444
2017-08-12T05:44:47.114Z,1452
2017-08-12T05:45:47.106Z,1428
2017-08-12T05:46:47.086Z,1424
2017-08-12T05:47:47.068Z,1468
2017-08-12T05:48:47.057Z,1536
2017-08-12T05:49:47.046Z,1568
2017-08-12T05:50:47.022Z,1624
2017-08-12T05:51:47.009Z,1752
2017-08-12T05:52:46.992Z,1904
2017-08-12T05:53:46.984Z,2028
2017-08-12T05:54:46.974Z,2052
2017-08-12T05:55:46.944Z,2048
2017-08-12T05:56:46.938Z,2024
2017-08-12T05:57:46.927Z,2076
2017-08-12T05:58:46.915Z,2148
2017-08-12T05:59:46.901Z,2180
2017-08-12T06:00:46.883Z,2160
2017-08-12T06:01:46.871Z,2168
2017-08-12T06:02:46.249Z,2340
2017-08-12T06:03:46.862Z,2548
2017-08-12T06:04:46.828Z,2720
2017-08-12T06:05:46.805Z,2712
2017-08-12T06:06:46.805Z,2652
2017-08-12T06:07:46.470Z,2524
2017-08-12T06:08:46.776Z,2424
2017-08-12T06:09:46.453Z,2492
2017-08-12T06:10:46.731Z,2520
2017-08-12T06:11:46.728Z,2620
2017-08-12T06:12:46.399Z,2608
2017-08-12T06:13:46.699Z,2656
2017-08-12T06:14:46.367Z,2792
2017-08-12T06:15:46.656Z,3044
2017-08-12T06:16:46.651Z,3312
2017-08-12T06:17:46.637Z,3540
2017-08-12T06:18:46.627Z,3728
2017-08-12T06:19:46.616Z,3792
2017-08-12T06:20:46.282Z,3604
2017-08-12T06:21:46.570Z,3372
2017-08-12T06:22:46.558Z,3420
2017-08-12T06:23:46.545Z,3424
2017-08-12T06:24:46.219Z,3328
2017-08-12T06:25:46.217Z,3428
2017-08-12T06:26:46.191Z,3592
2017-08-12T06:27:46.172Z,3804
2017-08-12T06:28:46.464Z,3792
2017-08-12T06:29:46.444Z,3768
2017-08-12T06:30:46.442Z,3892
2017-08-12T06:31:46.422Z,3864
2017-08-12T06:32:46.103Z,3832
2017-08-12T06:33:46.378Z,3820
2017-08-12T06:34:46.370Z,3824
2017-08-12T06:35:46.350Z,4084
2017-08-12T06:36:46.339Z,4388
2017-08-12T06:37:46.336Z,4640
2017-08-12T06:38:46.297Z,4628
2017-08-12T06:39:45.680Z,4532
2017-08-12T06:40:45.670Z,4420
2017-08-12T06:41:46.262Z,4424
2017-08-12T06:42:46.263Z,4624
2017-08-12T06:43:46.230Z,4928
2017-08-12T06:44:45.618Z,5212
2017-08-12T06:45:46.209Z,5536
2017-08-12T06:46:46.198Z,5820
2017-08-12T06:47:46.167Z,6168
2017-08-12T06:48:46.145Z,6352
2017-08-12T06:49:46.128Z,6248
2017-08-12T06:50:46.119Z,6084
2017-08-12T06:51:46.116Z,6104
2017-08-12T06:52:46.100Z,6576
2017-08-12T06:53:45.775Z,6888
2017-08-12T06:54:46.061Z,6736
2017-08-12T06:55:46.037Z,6188
2017-08-12T06:56:45.727Z,5884
2017-08-12T06:57:46.014Z,5964
2017-08-12T06:58:45.999Z,6036
2017-08-12T06:59:45.996Z,6380
2017-08-12T07:00:45.975Z,6728
2017-08-12T07:01:45.949Z,6788
2017-08-12T07:02:45.944Z,7048
2017-08-12T07:03:45.912Z,7436
2017-08-12T07:04:45.900Z,7252
2017-08-12T07:05:45.887Z,7192
2017-08-12T07:06:45.879Z,7224
2017-08-12T07:07:45.858Z,7224
2017-08-12T07:08:45.836Z,7532
2017-08-12T07:09:45.547Z,7500
2017-08-12T07:10:45.798Z,7316
2017-08-12T07:11:45.490Z,7436
2017-08-12T07:12:45.794Z,7680
2017-08-12T07:13:45.761Z,7664
2017-08-12T07:14:45.744Z,7440
2017-08-12T07:15:45.722Z,7700
2017-08-12T07:16:45.415Z,8100
2017-08-12T07:17:45.702Z,8580
2017-08-12T07:18:45.883Z,9904
2017-08-12T07:19:45.553Z,10996
2017-08-12T07:20:45.666Z,11772
2017-08-12T07:21:45.342Z,12084
2017-08-12T07:22:45.832Z,12012
2017-08-12T07:23:45.293Z,10972
2017-08-12T07:24:45.590Z,10528
2017-08-12T07:25:45.576Z,10392
2017-08-12T07:26:45.558Z,10744
2017-08-12T07:27:45.748Z,11004
2017-08-12T07:28:45.530Z,11016
2017-08-12T07:29:45.211Z,11192
2017-08-12T07:30:45.197Z,11324
2017-08-12T07:31:44.867Z,10880
2017-08-12T07:32:45.467Z,11148
2017-08-12T07:33:45.455Z,11796
2017-08-12T07:34:44.827Z,12020
2017-08-12T07:35:45.103Z,11664
2017-08-12T07:36:45.109Z,11324
2017-08-12T07:37:45.378Z,10932
2017-08-12T07:38:44.762Z,10980
2017-08-12T07:39:45.051Z,11156
2017-08-12T07:40:45.032Z,11176
2017-08-12T07:41:45.024Z,10972
2017-08-12T07:42:45.010Z,10696
2017-08-12T07:43:44.682Z,10672
2017-08-12T07:44:44.989Z,10628
2017-08-12T07:45:44.655Z,10652
2017-08-12T07:46:45.250Z,10956
2017-08-12T07:47:45.231Z,10888
2017-08-12T07:48:45.217Z,10432
2017-08-12T07:49:45.208Z,10284
2017-08-12T07:50:45.179Z,9996
2017-08-12T07:51:45.167Z,9320
2017-08-12T07:52:45.151Z,9068
2017-08-12T07:53:45.348Z,9236
2017-08-12T07:54:45.142Z,9552
2017-08-12T07:55:45.112Z,10624
2017-08-12T07:56:45.104Z,11464
2017-08-12T07:57:45.288Z,11576
2017-08-12T07:58:45.058Z,11320
2017-08-12T07:59:44.740Z,11652
2017-08-12T08:00:45.045Z,12036
2017-08-12T08:01:45.024Z,12648
2017-08-12T08:02:45.021Z,12952
2017-08-12T08:03:45.001Z,12964
2017-08-12T08:04:44.979Z,12252
2017-08-12T08:05:44.352Z,11080
2017-08-12T08:06:44.643Z,10136
2017-08-12T08:07:44.917Z,10512
2017-08-12T08:08:44.626Z,10600
2017-08-12T08:09:44.896Z,11076
2017-08-12T08:10:44.577Z,10988
2017-08-12T08:11:44.556Z,11096
2017-08-12T08:12:44.840Z,10536
2017-08-12T08:13:44.839Z,10324
2017-08-12T08:14:44.814Z,10448
2017-08-12T08:15:44.492Z,11324
2017-08-12T08:16:44.791Z,12472
2017-08-12T08:17:44.781Z,13000
2017-08-12T08:18:44.457Z,13484
2017-08-12T08:19:44.449Z,13772
2017-08-12T08:20:44.730Z,13892
2017-08-12T08:21:44.114Z,14792
2017-08-12T08:22:44.608Z,15516
2017-08-12T08:23:44.690Z,17576
2017-08-12T08:24:44.682Z,18432
2017-08-12T08:25:44.646Z,18336
2017-08-12T08:26:44.638Z,20576
2017-08-12T08:27:44.852Z,23104
2017-08-12T08:28:44.607Z,22848
2017-08-12T08:29:44.292Z,20000
2017-08-12T08:30:44.585Z,23840
2017-08-12T08:31:44.263Z,27392
2017-08-12T08:32:44.233Z,22816
2017-08-12T08:33:44.222Z,23040
2017-08-12T08:34:44.510Z,28576
2017-08-12T08:35:44.516Z,24096
2017-08-12T08:36:44.486Z,27232
2017-08-12T08:37:44.479Z,31968
2017-08-12T08:38:44.151Z,28096
2017-08-12T08:39:44.450Z,28640
2017-08-12T08:40:43.802Z,26240
2017-08-12T08:41:44.402Z,30912
2017-08-12T08:42:44.396Z,31936
2017-08-12T08:43:44.375Z,30176
2017-08-12T08:44:44.065Z,30176
2017-08-12T08:45:44.348Z,28352
2017-08-12T08:46:44.322Z,22240
2017-08-12T08:47:44.324Z,20704
2017-08-12T08:48:43.989Z,27904
2017-08-12T08:49:44.288Z,29664
2017-08-12T08:50:43.971Z,31648
2017-08-12T08:51:43.951Z,38272
2017-08-12T08:52:44.245Z,34912
2017-08-12T08:53:44.227Z,34208
2017-08-12T08:54:44.198Z,40832
2017-08-12T08:55:44.192Z,51232
2017-08-12T08:56:44.387Z,43744
2017-08-12T08:57:44.047Z,43808
2017-08-12T08:58:44.142Z,34272
2017-08-12T08:59:44.121Z,32384
2017-08-12T09:00:44.126Z,28000
2017-08-12T09:01:57.989Z,27040
2017-08-12T09:02:44.077Z,20800
2017-08-12T09:03:44.077Z,16996
2017-08-12T09:04:44.052Z,14764
2017-08-12T09:05:43.733Z,13244
2017-08-12T09:06:43.921Z,12312
2017-08-12T09:07:44.004Z,13376
2017-08-12T09:08:43.999Z,14976
2017-08-12T09:09:43.369Z,15808
2017-08-12T09:10:43.951Z,19040
2017-08-12T09:11:43.936Z,17732
2017-08-12T09:12:43.920Z,18400
2017-08-12T09:13:43.600Z,19904
2017-08-12T09:14:43.590Z,15520
2017-08-12T09:15:43.265Z,15096
2017-08-12T09:16:43.872Z,15852
2017-08-12T09:17:43.846Z,16564
2017-08-12T09:18:43.827Z,19904
2017-08-12T09:19:43.512Z,20768
2017-08-12T09:20:43.490Z,17404
2017-08-12T09:21:43.782Z,16832
2017-08-12T09:22:43.769Z,19136
2017-08-12T09:23:43.743Z,17256
2017-08-12T09:24:43.747Z,15724
2017-08-12T09:25:43.730Z,16884
2017-08-12T09:26:43.707Z,16728
2017-08-12T09:27:43.695Z,21184
2017-08-12T09:28:43.672Z,22080
2017-08-12T09:29:43.348Z,20000
2017-08-12T09:30:43.551Z,18688
2017-08-12T09:31:43.620Z,16352
2017-08-12T09:32:43.613Z,24096
2017-08-12T09:33:43.594Z,24320
2017-08-12T09:34:43.602Z,18464
2017-08-12T09:35:58.172Z,22336
2017-08-12T09:36:57.451Z,27840
2017-08-12T09:37:43.537Z,19744
2017-08-12T09:38:43.221Z,15584
2017-08-12T09:39:42.894Z,15176
2017-08-12T09:40:43.690Z,19072
2017-08-12T09:41:43.170Z,20576
2017-08-12T09:42:43.158Z,18144
2017-08-12T09:43:43.462Z,21568
2017-08-12T09:44:43.174Z,30048
2017-08-12T09:45:43.521Z,24736
2017-08-12T09:46:43.392Z,20224
2017-08-12T09:47:43.387Z,19808
2017-08-12T09:48:43.367Z,19744
2017-08-12T09:49:43.051Z,20320
2017-08-12T09:50:43.332Z,22272
2017-08-12T09:51:43.337Z,19232
2017-08-12T09:52:42.693Z,18784
2017-08-12T09:53:43.287Z,17264
2017-08-12T09:54:43.283Z,16048
2017-08-12T09:55:43.273Z,15604
2017-08-12T09:56:43.240Z,15808
2017-08-12T09:57:43.242Z,15640
2017-08-12T09:58:42.908Z,13756
2017-08-12T09:59:43.201Z,11996
2017-08-12T10:00:43.179Z,10168
2017-08-12T10:01:43.160Z,9480
2017-08-12T10:02:43.150Z,9472
2017-08-12T10:03:43.132Z,9504
2017-08-12T10:04:43.162Z,9560
2017-08-12T10:05:42.799Z,9792
2017-08-12T10:06:43.094Z,10584
2017-08-12T10:07:43.083Z,11208
2017-08-12T10:08:43.062Z,11768
2017-08-12T10:09:43.044Z,12520
2017-08-12T10:10:43.249Z,11308
2017-08-12T10:11:42.720Z,10688
2017-08-12T10:12:43.000Z,10496
2017-08-12T10:13:42.977Z,10308
2017-08-12T10:14:42.975Z,10204
2017-08-12T10:15:42.661Z,10588
2017-08-12T10:16:42.968Z,10892
2017-08-12T10:17:42.332Z,10428
2017-08-12T10:18:42.613Z,9764
2017-08-12T10:19:42.896Z,9472
2017-08-12T10:20:42.286Z,9644
2017-08-12T10:21:42.562Z,9576
2017-08-12T10:22:42.851Z,9180
2017-08-12T10:23:42.846Z,8820
2017-08-12T10:24:42.518Z,8624
2017-08-12T10:25:42.513Z,8940
2017-08-12T10:26:42.782Z,9332
2017-08-12T10:27:42.472Z,9360
2017-08-12T10:28:42.461Z,9012
2017-08-12T10:29:42.751Z,9180
2017-08-12T10:30:42.428Z,9916
2017-08-12T10:31:42.419Z,10492
2017-08-12T10:32:42.401Z,9612
2017-08-12T10:33:42.391Z,8292
2017-08-12T10:34:42.683Z,8204
2017-08-12T10:35:42.364Z,8804
2017-08-12T10:36:42.352Z,9540
2017-08-12T10:37:42.326Z,9496
2017-08-12T10:38:42.319Z,9472
2017-08-12T10:39:42.617Z,9488
2017-08-12T10:40:42.581Z,9392
2017-08-12T10:41:42.569Z,8716
2017-08-12T10:42:42.554Z,7988
2017-08-12T10:43:42.542Z,7968
2017-08-12T10:44:42.537Z,8620
2017-08-12T10:45:42.519Z,9852
2017-08-12T10:46:42.506Z,9156
2017-08-12T10:47:42.199Z,8524
2017-08-12T10:48:42.455Z,9140
2017-08-12T10:49:42.151Z,10168
2017-08-12T10:50:42.436Z,9852
2017-08-12T10:51:42.416Z,9052
2017-08-12T10:52:42.429Z,9144
2017-08-12T10:53:42.396Z,9392
2017-08-12T10:54:42.376Z,10608
2017-08-12T10:55:42.362Z,10888
2017-08-12T10:56:42.377Z,10164
2017-08-12T10:57:42.333Z,9292
2017-08-12T10:58:42.322Z,8996
2017-08-12T10:59:42.297Z,9080
2017-08-12T11:00:42.273Z,8960
2017-08-12T11:01:42.288Z,8868
2017-08-12T11:02:42.567Z,8924
2017-08-12T11:03:42.232Z,8968
2017-08-12T11:04:42.220Z,8648
2017-08-12T11:05:42.203Z,7640
2017-08-12T11:06:42.200Z,6476
2017-08-12T11:07:42.172Z,6280
2017-08-12T11:08:42.180Z,6416
2017-08-12T11:09:42.154Z,7044
2017-08-12T11:10:42.140Z,8020
2017-08-12T11:11:42.124Z,8308
2017-08-12T11:12:42.108Z,8284
2017-08-12T11:13:42.124Z,8392
2017-08-12T11:14:42.070Z,8680
2017-08-12T11:15:42.045Z,9480
2017-08-12T11:16:41.744Z,10096
2017-08-12T11:17:41.722Z,9936
2017-08-12T11:18:42.015Z,10092
2017-08-12T11:19:42.010Z,10388
2017-08-12T11:20:41.998Z,10460
2017-08-12T11:21:41.664Z,10192
2017-08-12T11:22:41.971Z,10136
2017-08-12T11:23:41.937Z,10432
2017-08-12T11:24:41.927Z,10736
2017-08-12T11:25:41.909Z,10636
2017-08-12T11:26:41.584Z,10396
2017-08-12T11:27:41.879Z,10828
2017-08-12T11:28:41.857Z,11060
2017-08-12T11:29:41.851Z,12072
2017-08-12T11:30:41.831Z,12616
2017-08-12T11:31:41.817Z,12848
2017-08-12T11:32:41.799Z,14056
2017-08-12T11:33:41.787Z,13760
2017-08-12T11:34:41.773Z,13352
2017-08-12T11:35:41.460Z,13668
2017-08-12T11:36:41.747Z,14612
2017-08-12T11:37:41.417Z,14544
2017-08-12T11:38:41.727Z,13320
2017-08-12T11:39:41.391Z,12756
2017-08-12T11:40:41.394Z,13316
2017-08-12T11:41:41.690Z,12260
2017-08-12T11:42:41.668Z,11564
2017-08-12T11:43:41.636Z,9876
2017-08-12T11:44:41.626Z,9152
2017-08-12T11:45:41.620Z,9756
2017-08-12T11:46:41.606Z,10444
2017-08-12T11:47:41.622Z,10876
2017-08-12T11:48:41.574Z,10708
2017-08-12T11:49:41.552Z,10992
2017-08-12T11:50:41.545Z,11576
2017-08-12T11:51:41.532Z,11884
2017-08-12T11:52:41.498Z,13928
2017-08-12T11:53:41.506Z,15660
2017-08-12T11:54:41.475Z,16064
2017-08-12T11:55:41.157Z,15872
2017-08-12T11:56:41.441Z,18656
2017-08-12T11:57:41.424Z,22656
2017-08-12T11:58:41.114Z,16804
2017-08-12T11:59:41.393Z,13752
2017-08-12T12:01:53.992Z,16708
2017-08-12T12:02:04.108Z,16568
2017-08-12T12:03:04.100Z,18816
2017-08-12T12:04:04.073Z,22464
2017-08-12T12:05:04.049Z,21504
2017-08-12T12:06:04.045Z,25216
2017-08-12T12:07:03.718Z,21536
2017-08-12T12:08:04.019Z,26976
2017-08-12T12:09:03.702Z,24800
2017-08-12T12:10:03.978Z,18176
2017-08-12T12:11:03.676Z,26016
2017-08-12T12:12:03.655Z,30592
2017-08-12T12:13:03.947Z,26144
2017-08-12T12:14:03.925Z,27520
2017-08-12T12:15:03.909Z,20032
2017-08-12T12:16:03.891Z,15984
2017-08-12T12:17:03.581Z,15648
2017-08-12T12:18:03.853Z,13740
2017-08-12T12:19:03.847Z,12652
2017-08-12T12:20:03.521Z,10920
2017-08-12T12:21:03.510Z,11628
2017-08-12T12:22:03.811Z,12608
2017-08-12T12:23:03.793Z,10564
2017-08-12T12:24:03.781Z,10172
2017-08-12T12:25:03.760Z,11496
2017-08-12T12:26:03.746Z,11212
2017-08-12T12:27:03.427Z,10872
2017-08-12T12:28:03.722Z,11640
2017-08-12T12:29:03.691Z,12484
2017-08-12T12:30:03.679Z,13388
2017-08-12T12:31:03.656Z,12348
2017-08-12T12:32:03.646Z,10876
2017-08-12T12:33:03.624Z,10836
2017-08-12T12:34:03.614Z,11332
2017-08-12T12:35:03.596Z,10780
2017-08-12T12:36:03.589Z,9572
2017-08-12T12:37:03.587Z,9940
2017-08-12T12:38:03.572Z,11272
2017-08-12T12:39:03.552Z,11680
2017-08-12T12:40:03.539Z,9936
2017-08-12T12:41:03.506Z,9660
2017-08-12T12:42:03.716Z,10616
2017-08-12T12:43:03.475Z,12168
2017-08-12T12:44:03.466Z,12692
2017-08-12T12:45:03.434Z,11460
2017-08-12T12:46:03.420Z,10824
2017-08-12T12:47:03.435Z,10252
2017-08-12T12:48:03.410Z,9436
2017-08-12T12:49:03.377Z,9588
2017-08-12T12:50:03.373Z,8808
2017-08-12T12:51:03.358Z,8620
2017-08-12T12:52:03.349Z,8612
2017-08-12T12:53:03.012Z,9340
2017-08-12T12:54:02.705Z,10008
2017-08-12T12:55:02.702Z,11400
2017-08-12T12:56:03.289Z,11448
2017-08-12T12:57:02.661Z,11180
2017-08-12T12:58:02.655Z,10756
2017-08-12T12:59:03.240Z,10672
2017-08-12T13:00:02.906Z,11132
2017-08-12T13:01:02.937Z,10992
2017-08-12T13:02:03.201Z,11936
2017-08-12T13:03:03.189Z,12976
2017-08-12T13:04:03.168Z,11152
2017-08-12T13:05:02.846Z,11080
2017-08-12T13:06:02.527Z,11724
2017-08-12T13:07:02.808Z,10844
2017-08-12T13:08:03.147Z,9752
2017-08-12T13:09:02.777Z,9088
2017-08-12T13:10:03.095Z,9004
2017-08-12T13:11:03.269Z,9420
2017-08-12T13:12:02.730Z,10376
2017-08-12T13:13:02.742Z,10140
2017-08-12T13:14:03.026Z,9992
2017-08-12T13:15:03.193Z,9812
2017-08-12T13:16:16.874Z,7868
2017-08-12T13:17:02.964Z,7156
2017-08-12T13:18:02.971Z,7096
2017-08-12T13:19:02.952Z,7128
2017-08-12T13:20:03.154Z,8440
2017-08-12T13:21:03.132Z,9332
2017-08-12T13:22:02.298Z,10384
2017-08-12T13:23:02.876Z,9896
2017-08-12T13:24:02.894Z,9144
2017-08-12T13:25:02.864Z,9152
2017-08-12T13:26:02.853Z,8928
2017-08-12T13:27:02.527Z,8744
2017-08-12T13:28:02.806Z,8832
2017-08-12T13:29:02.802Z,8692
2017-08-12T13:30:02.801Z,8048
2017-08-12T13:31:02.771Z,8024
2017-08-12T13:32:02.461Z,8440
2017-08-12T13:33:02.434Z,9056
2017-08-12T13:34:02.734Z,8864
2017-08-12T13:35:02.723Z,8832
2017-08-12T13:36:02.706Z,8108
2017-08-12T13:37:02.381Z,7444